Fruitvale, Idaho
Current Conditions -  °F | °C
As of 7:51 PM on Saturday 25 Oct 2014 (Local Time) from KMYL Reporting Station
Clear Clear  
Wind Chill: 53°   Ceiling: Unl
Heat Index: 53°   Visibility: 10mi
Dew Point: 35°   Wind: 10mph
Humidity: 50%   Direction: 200°SSW
Pressure: 29.8"   Gusts: 25mph
Location:  44.82°N, 116.44°W
Report Text: KMYL 260151Z AUTO 20009G22KT 10SM CLR 12/02 A2980 RMK AO2 RAB0056E07 SLP087 P0000 T01170017
Loading
Personal Weather Stations






























Interactive Weather Map
Tropical Storm Tracking
New forecast layout! Learn more

10-Day Weather Forecast

Advertisements
Track Severe Weather on mobile